sensor_id;sensor_type;location;lat;lon;timestamp;temperature;humidity
2002;DHT22;1003;48.002;7.788;2023-03-03T00:00:10;0.30;99.90
2002;DHT22;1003;48.002;7.788;2023-03-03T00:02:38;0.20;99.90
2002;DHT22;1003;48.002;7.788;2023-03-03T00:05:06;0.20;99.90
2002;DHT22;1003;48.002;7.788;2023-03-03T00:07:33;0.20;99.90
2002;DHT22;1003;48.002;7.788;2023-03-03T00:10:00;0.20;99.90
2002;DHT22;1003;48.002;7.788;2023-03-03T00:12:29;0.20;99.90
2002;DHT22;1003;48.002;7.788;2023-03-03T00:14:57;0.20;99.90
2002;DHT22;1003;48.002;7.788;2023-03-03T00:17:26;0.30;99.90
2002;DHT22;1003;48.002;7.788;2023-03-03T00:19:55;0.20;99.90
2002;DHT22;1003;48.002;7.788;2023-03-03T00:22:28;0.00;99.90
2002;DHT22;1003;48.002;7.788;2023-03-03T00:24:59;-0.10;99.90
2002;DHT22;1003;48.002;7.788;2023-03-03T00:27:46;-0.30;99.90
2002;DHT22;1003;48.002;7.788;2023-03-03T00:30:18;-0.40;99.90
2002;DHT22;1003;48.002;7.788;2023-03-03T00:32:52;-0.40;99.90
2002;DHT22;1003;48.002;7.788;2023-03-03T00:35:25;-0.50;99.90
2002;DHT22;1003;48.002;7.788;2023-03-03T00:37:56;-0.50;99.90
2002;DHT22;1003;48.002;7.788;2023-03-03T00:40:26;-0.50;99.90
2002;DHT22;1003;48.002;7.788;2023-03-03T00:42:59;-0.60;99.90
2002;DHT22;1003;48.002;7.788;2023-03-03T00:45:29;-0.60;99.90
2002;DHT22;1003;48.002;7.788;2023-03-03T00:48:15;-0.60;99.90
2002;DHT22;1003;48.002;7.788;2023-03-03T00:50:47;-0.60;99.90
2002;DHT22;1003;48.002;7.788;2023-03-03T00:53:17;-0.70;99.90
2002;DHT22;1003;48.002;7.788;2023-03-03T00:55:47;-0.70;99.90
2002;DHT22;1003;48.002;7.788;2023-03-03T00:58:15;-0.70;99.90
2002;DHT22;1003;48.002;7.788;2023-03-03T01:00:46;-0.80;99.90
2002;DHT22;1003;48.002;7.788;2023-03-03T01:03:17;-0.80;99.90
2002;DHT22;1003;48.002;7.788;2023-03-03T01:05:47;-0.80;99.90
2002;DHT22;1003;48.002;7.788;2023-03-03T01:08:14;-0.80;99.90
2002;DHT22;1003;48.002;7.788;2023-03-03T01:10:43;-0.90;99.90
2002;DHT22;1003;48.002;7.788;2023-03-03T01:13:15;-0.90;99.90
2002;DHT22;1003;48.002;7.788;2023-03-03T01:15:43;-0.90;99.90
2002;DHT22;1003;48.002;7.788;2023-03-03T01:18:11;-1.00;99.90
2002;DHT22;1003;48.002;7.788;2023-03-03T01:20:40;-1.00;99.90
2002;DHT22;1003;48.002;7.788;2023-03-03T01:23:07;-1.00;99.90
2002;DHT22;1003;48.002;7.788;2023-03-03T01:25:35;-1.10;99.90
2002;DHT22;1003;48.002;7.788;2023-03-03T01:28:03;-1.10;99.90
2002;DHT22;1003;48.002;7.788;2023-03-03T01:30:30;-1.00;99.90
2002;DHT22;1003;48.002;7.788;2023-03-03T01:32:57;-1.00;99.90
2002;DHT22;1003;48.002;7.788;2023-03-03T01:35:25;-0.90;99.90
2002;DHT22;1003;48.002;7.788;2023-03-03T01:37:53;-0.80;99.90
2002;DHT22;1003;48.002;7.788;2023-03-03T01:40:23;-0.70;99.90
2002;DHT22;1003;48.002;7.788;2023-03-03T01:42:52;-0.70;99.90
2002;DHT22;1003;48.002;7.788;2023-03-03T01:45:21;-0.70;99.90
2002;DHT22;1003;48.002;7.788;2023-03-03T01:47:53;-0.70;99.90
2002;DHT22;1003;48.002;7.788;2023-03-03T01:50:39;-0.70;99.90
2002;DHT22;1003;48.002;7.788;2023-03-03T01:53:16;-0.70;99.90
2002;DHT22;1003;48.002;7.788;2023-03-03T01:55:46;-0.70;99.90
2002;DHT22;1003;48.002;7.788;2023-03-03T01:58:20;-0.70;99.90
2002;DHT22;1003;48.002;7.788;2023-03-03T02:00:52;-0.70;99.90
2002;DHT22;1003;48.002;7.788;2023-03-03T02:03:25;-0.70;99.90
2002;DHT22;1003;48.002;7.788;2023-03-03T02:05:54;-0.70;99.90
2002;DHT22;1003;48.002;7.788;2023-03-03T02:08:30;-0.80;99.90
2002;DHT22;1003;48.002;7.788;2023-03-03T02:11:02;-0.80;99.90
2002;DHT22;1003;48.002;7.788;2023-03-03T02:13:31;-0.80;99.90
2002;DHT22;1003;48.002;7.788;2023-03-03T02:15:58;-0.70;99.90
2002;DHT22;1003;48.002;7.788;2023-03-03T02:18:25;-0.70;99.90
2002;DHT22;1003;48.002;7.788;2023-03-03T02:20:56;-0.80;99.90
2002;DHT22;1003;48.002;7.788;2023-03-03T02:23:36;-0.90;99.90
2002;DHT22;1003;48.002;7.788;2023-03-03T02:26:11;-1.00;99.90
2002;DHT22;1003;48.002;7.788;2023-03-03T02:28:41;-1.20;99.90
2002;DHT22;1003;48.002;7.788;2023-03-03T02:31:09;-1.30;99.90
2002;DHT22;1003;48.002;7.788;2023-03-03T02:33:40;-1.40;99.90
2002;DHT22;1003;48.002;7.788;2023-03-03T02:36:11;-1.40;99.90
2002;DHT22;1003;48.002;7.788;2023-03-03T02:38:43;-1.50;99.90
2002;DHT22;1003;48.002;7.788;2023-03-03T02:41:25;-1.50;99.90
2002;DHT22;1003;48.002;7.788;2023-03-03T02:44:00;-1.50;99.90
2002;DHT22;1003;48.002;7.788;2023-03-03T02:46:34;-1.50;99.90
2002;DHT22;1003;48.002;7.788;2023-03-03T02:49:04;-1.40;99.90
2002;DHT22;1003;48.002;7.788;2023-03-03T02:51:33;-1.50;99.90
2002;DHT22;1003;48.002;7.788;2023-03-03T02:54:01;-1.50;99.90
2002;DHT22;1003;48.002;7.788;2023-03-03T02:56:29;-1.60;99.90
2002;DHT22;1003;48.002;7.788;2023-03-03T02:58:57;-1.60;99.90
2002;DHT22;1003;48.002;7.788;2023-03-03T03:01:25;-1.70;99.90
2002;DHT22;1003;48.002;7.788;2023-03-03T03:03:52;-1.80;99.90
2002;DHT22;1003;48.002;7.788;2023-03-03T03:06:19;-1.90;99.90
2002;DHT22;1003;48.002;7.788;2023-03-03T03:08:46;-2.00;99.90
2002;DHT22;1003;48.002;7.788;2023-03-03T03:11:13;-2.00;99.90
2002;DHT22;1003;48.002;7.788;2023-03-03T03:13:41;-2.00;99.90
2002;DHT22;1003;48.002;7.788;2023-03-03T03:16:09;-2.00;99.90
2002;DHT22;1003;48.002;7.788;2023-03-03T03:18:36;-2.00;99.90
2002;DHT22;1003;48.002;7.788;2023-03-03T03:21:08;-1.90;99.90
2002;DHT22;1003;48.002;7.788;2023-03-03T03:23:37;-2.00;99.90
2002;DHT22;1003;48.002;7.788;2023-03-03T03:26:05;-2.00;99.90
2002;DHT22;1003;48.002;7.788;2023-03-03T03:28:32;-2.10;99.90
2002;DHT22;1003;48.002;7.788;2023-03-03T03:31:01;-2.20;99.90
2002;DHT22;1003;48.002;7.788;2023-03-03T03:33:29;-2.10;99.90
2002;DHT22;1003;48.002;7.788;2023-03-03T03:35:58;-2.10;99.90
2002;DHT22;1003;48.002;7.788;2023-03-03T03:38:26;-2.20;99.90
2002;DHT22;1003;48.002;7.788;2023-03-03T03:40:54;-2.20;99.90
2002;DHT22;1003;48.002;7.788;2023-03-03T03:43:21;-2.10;99.90
2002;DHT22;1003;48.002;7.788;2023-03-03T03:45:49;-2.00;99.90
2002;DHT22;1003;48.002;7.788;2023-03-03T03:48:18;-2.00;99.90
2002;DHT22;1003;48.002;7.788;2023-03-03T03:50:46;-1.90;99.90
2002;DHT22;1003;48.002;7.788;2023-03-03T03:53:13;-1.80;99.90
2002;DHT22;1003;48.002;7.788;2023-03-03T03:55:40;-1.80;99.90
2002;DHT22;1003;48.002;7.788;2023-03-03T03:58:08;-1.80;99.90
2002;DHT22;1003;48.002;7.788;2023-03-03T04:00:39;-1.80;99.90
2002;DHT22;1003;48.002;7.788;2023-03-03T04:03:06;-1.80;99.90
2002;DHT22;1003;48.002;7.788;2023-03-03T04:05:35;-1.80;99.90
2002;DHT22;1003;48.002;7.788;2023-03-03T04:08:03;-1.90;99.90
2002;DHT22;1003;48.002;7.788;2023-03-03T04:10:30;-2.00;99.90
2002;DHT22;1003;48.002;7.788;2023-03-03T04:12:57;-2.10;99.90
2002;DHT22;1003;48.002;7.788;2023-03-03T04:15:24;-2.20;99.90
2002;DHT22;1003;48.002;7.788;2023-03-03T04:17:51;-2.20;99.90
2002;DHT22;1003;48.002;7.788;2023-03-03T04:20:18;-2.20;99.90
2002;DHT22;1003;48.002;7.788;2023-03-03T04:22:47;-2.20;99.90
2002;DHT22;1003;48.002;7.788;2023-03-03T04:25:15;-2.20;99.90
2002;DHT22;1003;48.002;7.788;2023-03-03T04:27:43;-2.10;99.90
2002;DHT22;1003;48.002;7.788;2023-03-03T04:30:12;-2.20;99.90
2002;DHT22;1003;48.002;7.788;2023-03-03T04:32:40;-2.30;99.90
2002;DHT22;1003;48.002;7.788;2023-03-03T04:35:08;-2.30;99.90
2002;DHT22;1003;48.002;7.788;2023-03-03T04:37:36;-2.30;99.90
2002;DHT22;1003;48.002;7.788;2023-03-03T04:40:07;-2.30;99.90
2002;DHT22;1003;48.002;7.788;2023-03-03T04:42:35;-2.20;99.90
2002;DHT22;1003;48.002;7.788;2023-03-03T04:45:03;-2.20;99.90
2002;DHT22;1003;48.002;7.788;2023-03-03T04:47:31;-2.10;99.90
2002;DHT22;1003;48.002;7.788;2023-03-03T04:49:58;-2.10;99.90
2002;DHT22;1003;48.002;7.788;2023-03-03T04:52:26;-2.00;99.90
2002;DHT22;1003;48.002;7.788;2023-03-03T04:54:54;-1.90;99.90
2002;DHT22;1003;48.002;7.788;2023-03-03T04:57:22;-1.90;99.90
2002;DHT22;1003;48.002;7.788;2023-03-03T04:59:49;-1.70;99.90
2002;DHT22;1003;48.002;7.788;2023-03-03T05:02:17;-1.60;99.90
2002;DHT22;1003;48.002;7.788;2023-03-03T05:04:44;-1.40;99.90
2002;DHT22;1003;48.002;7.788;2023-03-03T05:07:11;-1.30;99.90
2002;DHT22;1003;48.002;7.788;2023-03-03T05:09:38;-1.20;99.90
2002;DHT22;1003;48.002;7.788;2023-03-03T05:12:05;-1.20;99.90
2002;DHT22;1003;48.002;7.788;2023-03-03T05:14:34;-1.10;99.90
2002;DHT22;1003;48.002;7.788;2023-03-03T05:17:01;-1.10;99.90
2002;DHT22;1003;48.002;7.788;2023-03-03T05:19:30;-1.00;99.90
2002;DHT22;1003;48.002;7.788;2023-03-03T05:21:59;-1.00;99.90
2002;DHT22;1003;48.002;7.788;2023-03-03T05:24:26;-1.00;99.90
2002;DHT22;1003;48.002;7.788;2023-03-03T05:26:54;-0.90;99.90
2002;DHT22;1003;48.002;7.788;2023-03-03T05:29:21;-0.80;99.90
2002;DHT22;1003;48.002;7.788;2023-03-03T05:31:49;-0.80;99.90
2002;DHT22;1003;48.002;7.788;2023-03-03T05:34:16;-0.70;99.90
2002;DHT22;1003;48.002;7.788;2023-03-03T05:36:43;-0.70;99.90
2002;DHT22;1003;48.002;7.788;2023-03-03T05:39:10;-0.70;99.90
2002;DHT22;1003;48.002;7.788;2023-03-03T05:41:38;-0.60;99.90
2002;DHT22;1003;48.002;7.788;2023-03-03T05:44:05;-0.60;99.90
2002;DHT22;1003;48.002;7.788;2023-03-03T05:46:32;-0.60;99.90
2002;DHT22;1003;48.002;7.788;2023-03-03T05:49:00;-0.50;99.90
2002;DHT22;1003;48.002;7.788;2023-03-03T05:51:28;-0.50;99.90
2002;DHT22;1003;48.002;7.788;2023-03-03T05:53:55;-0.50;99.90
2002;DHT22;1003;48.002;7.788;2023-03-03T05:56:22;-0.40;99.90
2002;DHT22;1003;48.002;7.788;2023-03-03T05:58:49;-0.40;99.90
2002;DHT22;1003;48.002;7.788;2023-03-03T06:01:16;-0.50;99.90
2002;DHT22;1003;48.002;7.788;2023-03-03T06:03:43;-0.50;99.90
2002;DHT22;1003;48.002;7.788;2023-03-03T06:06:11;-0.50;99.90
2002;DHT22;1003;48.002;7.788;2023-03-03T06:08:40;-0.50;99.90
2002;DHT22;1003;48.002;7.788;2023-03-03T06:11:07;-0.50;99.90
2002;DHT22;1003;48.002;7.788;2023-03-03T06:13:35;-0.50;99.90
2002;DHT22;1003;48.002;7.788;2023-03-03T06:16:02;-0.60;99.90
2002;DHT22;1003;48.002;7.788;2023-03-03T06:18:29;-0.60;99.90
2002;DHT22;1003;48.002;7.788;2023-03-03T06:20:56;-0.50;99.90
2002;DHT22;1003;48.002;7.788;2023-03-03T06:23:24;-0.50;99.90
2002;DHT22;1003;48.002;7.788;2023-03-03T06:25:52;-0.40;99.90
2002;DHT22;1003;48.002;7.788;2023-03-03T06:28:19;-0.50;99.90
2002;DHT22;1003;48.002;7.788;2023-03-03T06:30:46;-0.50;99.90
2002;DHT22;1003;48.002;7.788;2023-03-03T06:33:14;-0.50;99.90
2002;DHT22;1003;48.002;7.788;2023-03-03T06:35:41;-0.50;99.90
2002;DHT22;1003;48.002;7.788;2023-03-03T06:38:08;-0.40;99.90
2002;DHT22;1003;48.002;7.788;2023-03-03T06:40:36;-0.40;99.90
2002;DHT22;1003;48.002;7.788;2023-03-03T06:43:04;-0.40;99.90
2002;DHT22;1003;48.002;7.788;2023-03-03T06:45:31;-0.30;99.90
2002;DHT22;1003;48.002;7.788;2023-03-03T06:47:58;-0.30;99.90
2002;DHT22;1003;48.002;7.788;2023-03-03T06:50:25;-0.20;99.90
2002;DHT22;1003;48.002;7.788;2023-03-03T06:53:00;-0.10;99.90
2002;DHT22;1003;48.002;7.788;2023-03-03T06:55:33;-0.10;99.90
2002;DHT22;1003;48.002;7.788;2023-03-03T06:58:07;0.00;99.90
2002;DHT22;1003;48.002;7.788;2023-03-03T07:00:37;0.10;99.90
2002;DHT22;1003;48.002;7.788;2023-03-03T07:03:11;0.20;99.90
2002;DHT22;1003;48.002;7.788;2023-03-03T07:05:40;0.20;99.90
2002;DHT22;1003;48.002;7.788;2023-03-03T07:08:12;0.40;99.90
2002;DHT22;1003;48.002;7.788;2023-03-03T07:10:42;0.40;99.90
2002;DHT22;1003;48.002;7.788;2023-03-03T07:13:20;0.40;99.90
2002;DHT22;1003;48.002;7.788;2023-03-03T07:15:51;0.50;99.90
2002;DHT22;1003;48.002;7.788;2023-03-03T07:18:33;0.60;99.90
2002;DHT22;1003;48.002;7.788;2023-03-03T07:21:12;0.60;99.90
2002;DHT22;1003;48.002;7.788;2023-03-03T07:23:43;0.70;99.90
2002;DHT22;1003;48.002;7.788;2023-03-03T07:26:13;0.70;99.90
2002;DHT22;1003;48.002;7.788;2023-03-03T07:28:44;0.80;99.90
2002;DHT22;1003;48.002;7.788;2023-03-03T07:31:30;0.80;99.90
2002;DHT22;1003;48.002;7.788;2023-03-03T07:34:03;0.80;99.90
2002;DHT22;1003;48.002;7.788;2023-03-03T07:36:43;0.80;99.90
2002;DHT22;1003;48.002;7.788;2023-03-03T07:39:27;0.80;99.90
2002;DHT22;1003;48.002;7.788;2023-03-03T07:42:08;0.90;99.90
2002;DHT22;1003;48.002;7.788;2023-03-03T07:44:45;1.00;99.90
2002;DHT22;1003;48.002;7.788;2023-03-03T07:47:19;1.20;99.90
2002;DHT22;1003;48.002;7.788;2023-03-03T07:49:50;1.20;99.90
2002;DHT22;1003;48.002;7.788;2023-03-03T07:52:23;1.40;99.90
2002;DHT22;1003;48.002;7.788;2023-03-03T07:54:54;1.40;99.90
2002;DHT22;1003;48.002;7.788;2023-03-03T07:57:25;1.40;99.90
2002;DHT22;1003;48.002;7.788;2023-03-03T08:00:01;1.50;99.90
2002;DHT22;1003;48.002;7.788;2023-03-03T08:02:55;1.50;99.90
2002;DHT22;1003;48.002;7.788;2023-03-03T08:05:28;1.50;99.90
2002;DHT22;1003;48.002;7.788;2023-03-03T08:08:14;1.50;99.90
2002;DHT22;1003;48.002;7.788;2023-03-03T08:10:52;1.60;99.90
2002;DHT22;1003;48.002;7.788;2023-03-03T08:13:21;1.60;99.90
2002;DHT22;1003;48.002;7.788;2023-03-03T08:15:59;1.70;99.90
2002;DHT22;1003;48.002;7.788;2023-03-03T08:18:29;1.80;99.90
2002;DHT22;1003;48.002;7.788;2023-03-03T08:21:02;1.90;99.90
2002;DHT22;1003;48.002;7.788;2023-03-03T08:23:34;2.00;99.90
2002;DHT22;1003;48.002;7.788;2023-03-03T08:26:01;2.10;99.90
2002;DHT22;1003;48.002;7.788;2023-03-03T08:28:28;2.20;99.90
2002;DHT22;1003;48.002;7.788;2023-03-03T08:30:56;2.30;99.90
2002;DHT22;1003;48.002;7.788;2023-03-03T08:33:23;2.50;99.90
2002;DHT22;1003;48.002;7.788;2023-03-03T08:35:51;2.60;99.90
2002;DHT22;1003;48.002;7.788;2023-03-03T08:38:20;2.70;99.90
2002;DHT22;1003;48.002;7.788;2023-03-03T08:40:48;2.80;99.90
2002;DHT22;1003;48.002;7.788;2023-03-03T08:43:15;2.80;99.90
2002;DHT22;1003;48.002;7.788;2023-03-03T08:45:47;3.10;99.90
2002;DHT22;1003;48.002;7.788;2023-03-03T08:48:17;3.20;99.90
2002;DHT22;1003;48.002;7.788;2023-03-03T08:50:44;3.20;99.90
2002;DHT22;1003;48.002;7.788;2023-03-03T08:53:13;3.10;99.90
2002;DHT22;1003;48.002;7.788;2023-03-03T08:55:41;3.10;99.90
2002;DHT22;1003;48.002;7.788;2023-03-03T08:58:09;3.10;99.90
2002;DHT22;1003;48.002;7.788;2023-03-03T09:00:36;3.20;99.90
2002;DHT22;1003;48.002;7.788;2023-03-03T09:03:04;3.30;99.90
2002;DHT22;1003;48.002;7.788;2023-03-03T09:05:34;3.50;99.90
2002;DHT22;1003;48.002;7.788;2023-03-03T09:08:01;3.60;99.90
2002;DHT22;1003;48.002;7.788;2023-03-03T09:10:30;3.60;99.90
2002;DHT22;1003;48.002;7.788;2023-03-03T09:13:01;3.80;99.90
2002;DHT22;1003;48.002;7.788;2023-03-03T09:15:34;4.00;99.90
2002;DHT22;1003;48.002;7.788;2023-03-03T09:18:13;4.10;99.90
2002;DHT22;1003;48.002;7.788;2023-03-03T09:20:45;4.30;99.90
2002;DHT22;1003;48.002;7.788;2023-03-03T09:23:33;4.30;99.90
2002;DHT22;1003;48.002;7.788;2023-03-03T09:26:21;4.60;99.90
2002;DHT22;1003;48.002;7.788;2023-03-03T09:28:52;4.40;99.90
2002;DHT22;1003;48.002;7.788;2023-03-03T09:31:24;4.50;99.90
2002;DHT22;1003;48.002;7.788;2023-03-03T09:33:53;4.80;99.90
2002;DHT22;1003;48.002;7.788;2023-03-03T09:36:26;5.30;99.90
2002;DHT22;1003;48.002;7.788;2023-03-03T09:38:55;5.20;99.90
2002;DHT22;1003;48.002;7.788;2023-03-03T09:41:42;5.20;99.90
2002;DHT22;1003;48.002;7.788;2023-03-03T09:44:46;5.10;99.90
2002;DHT22;1003;48.002;7.788;2023-03-03T09:47:43;5.40;99.90
2002;DHT22;1003;48.002;7.788;2023-03-03T09:50:28;5.60;99.90
2002;DHT22;1003;48.002;7.788;2023-03-03T09:53:11;5.70;99.90
2002;DHT22;1003;48.002;7.788;2023-03-03T09:55:55;5.50;99.90
2002;DHT22;1003;48.002;7.788;2023-03-03T09:58:35;6.00;99.90
2002;DHT22;1003;48.002;7.788;2023-03-03T10:01:37;6.00;99.90
2002;DHT22;1003;48.002;7.788;2023-03-03T10:04:38;5.80;99.90
2002;DHT22;1003;48.002;7.788;2023-03-03T10:07:34;5.80;99.90
2002;DHT22;1003;48.002;7.788;2023-03-03T10:10:28;5.80;99.90
2002;DHT22;1003;48.002;7.788;2023-03-03T10:13:22;6.20;99.90
2002;DHT22;1003;48.002;7.788;2023-03-03T10:16:28;6.00;99.90
2002;DHT22;1003;48.002;7.788;2023-03-03T10:19:12;6.40;99.90
2002;DHT22;1003;48.002;7.788;2023-03-03T10:21:55;6.20;99.90
2002;DHT22;1003;48.002;7.788;2023-03-03T10:24:39;6.40;99.90
2002;DHT22;1003;48.002;7.788;2023-03-03T10:27:33;6.30;99.90
2002;DHT22;1003;48.002;7.788;2023-03-03T10:30:14;6.30;99.90
2002;DHT22;1003;48.002;7.788;2023-03-03T10:32:50;6.60;99.90
2002;DHT22;1003;48.002;7.788;2023-03-03T10:35:37;7.10;99.90
2002;DHT22;1003;48.002;7.788;2023-03-03T10:38:31;7.10;99.90
2002;DHT22;1003;48.002;7.788;2023-03-03T10:41:30;7.20;99.90
2002;DHT22;1003;48.002;7.788;2023-03-03T10:44:26;7.50;99.90
2002;DHT22;1003;48.002;7.788;2023-03-03T10:47:26;7.50;99.90
2002;DHT22;1003;48.002;7.788;2023-03-03T10:50:10;7.50;99.90
2002;DHT22;1003;48.002;7.788;2023-03-03T10:52:48;7.40;99.90
2002;DHT22;1003;48.002;7.788;2023-03-03T10:55:34;7.60;99.90
2002;DHT22;1003;48.002;7.788;2023-03-03T11:01:21;7.60;99.90
2002;DHT22;1003;48.002;7.788;2023-03-03T11:04:17;7.10;99.90
2002;DHT22;1003;48.002;7.788;2023-03-03T11:06:55;7.10;99.90
2002;DHT22;1003;48.002;7.788;2023-03-03T11:09:47;7.60;99.90
2002;DHT22;1003;48.002;7.788;2023-03-03T11:12:31;7.40;99.90
2002;DHT22;1003;48.002;7.788;2023-03-03T11:15:20;7.40;99.90
2002;DHT22;1003;48.002;7.788;2023-03-03T11:18:09;8.00;99.90
2002;DHT22;1003;48.002;7.788;2023-03-03T11:20:50;8.30;99.90
2002;DHT22;1003;48.002;7.788;2023-03-03T11:24:04;8.30;99.90
2002;DHT22;1003;48.002;7.788;2023-03-03T11:27:04;7.80;99.90
2002;DHT22;1003;48.002;7.788;2023-03-03T11:29:48;7.70;99.90
2002;DHT22;1003;48.002;7.788;2023-03-03T11:32:35;8.40;99.90
2002;DHT22;1003;48.002;7.788;2023-03-03T11:35:21;8.40;99.90
2002;DHT22;1003;48.002;7.788;2023-03-03T11:37:58;8.30;99.90
2002;DHT22;1003;48.002;7.788;2023-03-03T11:40:43;8.20;99.90
2002;DHT22;1003;48.002;7.788;2023-03-03T11:43:20;8.10;99.90
2002;DHT22;1003;48.002;7.788;2023-03-03T11:45:55;8.20;99.90
2002;DHT22;1003;48.002;7.788;2023-03-03T11:48:32;8.50;99.90
2002;DHT22;1003;48.002;7.788;2023-03-03T11:51:06;8.40;99.90
2002;DHT22;1003;48.002;7.788;2023-03-03T11:56:33;8.10;99.90
2002;DHT22;1003;48.002;7.788;2023-03-03T12:05:32;8.90;99.90
2002;DHT22;1003;48.002;7.788;2023-03-03T12:11:24;9.10;99.90
2002;DHT22;1003;48.002;7.788;2023-03-03T12:13:57;9.20;99.90
2002;DHT22;1003;48.002;7.788;2023-03-03T12:16:48;8.90;99.90
2002;DHT22;1003;48.002;7.788;2023-03-03T12:19:30;9.00;99.90
2002;DHT22;1003;48.002;7.788;2023-03-03T12:22:12;9.00;99.90
2002;DHT22;1003;48.002;7.788;2023-03-03T12:25:16;9.20;99.90
2002;DHT22;1003;48.002;7.788;2023-03-03T12:27:59;9.60;99.90
2002;DHT22;1003;48.002;7.788;2023-03-03T12:30:48;9.40;99.90
2002;DHT22;1003;48.002;7.788;2023-03-03T12:33:42;9.30;99.90
2002;DHT22;1003;48.002;7.788;2023-03-03T12:36:30;9.40;99.90
2002;DHT22;1003;48.002;7.788;2023-03-03T12:39:15;9.30;99.90
2002;DHT22;1003;48.002;7.788;2023-03-03T12:41:59;9.20;99.90
2002;DHT22;1003;48.002;7.788;2023-03-03T12:44:42;9.20;99.90
2002;DHT22;1003;48.002;7.788;2023-03-03T12:47:15;8.80;99.90
2002;DHT22;1003;48.002;7.788;2023-03-03T12:49:56;8.80;99.90
2002;DHT22;1003;48.002;7.788;2023-03-03T12:52:44;8.70;99.90
2002;DHT22;1003;48.002;7.788;2023-03-03T12:55:21;8.90;99.90
2002;DHT22;1003;48.002;7.788;2023-03-03T12:58:06;9.30;99.90
2002;DHT22;1003;48.002;7.788;2023-03-03T13:00:48;9.20;99.90
2002;DHT22;1003;48.002;7.788;2023-03-03T13:03:31;9.30;99.90
2002;DHT22;1003;48.002;7.788;2023-03-03T13:06:12;9.30;99.90
2002;DHT22;1003;48.002;7.788;2023-03-03T13:08:57;9.30;99.90
2002;DHT22;1003;48.002;7.788;2023-03-03T13:11:49;9.60;99.90
2002;DHT22;1003;48.002;7.788;2023-03-03T13:14:36;9.30;99.90
2002;DHT22;1003;48.002;7.788;2023-03-03T13:17:17;9.60;99.90
2002;DHT22;1003;48.002;7.788;2023-03-03T13:19:51;9.70;99.90
2002;DHT22;1003;48.002;7.788;2023-03-03T13:22:37;9.80;99.90
2002;DHT22;1003;48.002;7.788;2023-03-03T13:25:40;9.10;99.90
2002;DHT22;1003;48.002;7.788;2023-03-03T13:28:24;9.00;99.90
2002;DHT22;1003;48.002;7.788;2023-03-03T13:31:04;9.40;99.90
2002;DHT22;1003;48.002;7.788;2023-03-03T13:33:38;9.10;99.90
2002;DHT22;1003;48.002;7.788;2023-03-03T13:36:14;9.30;99.90
2002;DHT22;1003;48.002;7.788;2023-03-03T13:38:46;9.50;99.90
2002;DHT22;1003;48.002;7.788;2023-03-03T13:41:21;9.70;99.90
2002;DHT22;1003;48.002;7.788;2023-03-03T13:43:54;9.80;99.90
2002;DHT22;1003;48.002;7.788;2023-03-03T13:46:33;9.60;99.90
2002;DHT22;1003;48.002;7.788;2023-03-03T13:49:22;9.40;99.90
2002;DHT22;1003;48.002;7.788;2023-03-03T13:52:00;9.10;99.90
2002;DHT22;1003;48.002;7.788;2023-03-03T13:54:52;8.90;99.90
2002;DHT22;1003;48.002;7.788;2023-03-03T13:57:42;9.50;99.90
2002;DHT22;1003;48.002;7.788;2023-03-03T14:00:22;9.50;99.90
2002;DHT22;1003;48.002;7.788;2023-03-03T14:03:11;9.30;99.90
2002;DHT22;1003;48.002;7.788;2023-03-03T14:05:48;9.30;99.90
2002;DHT22;1003;48.002;7.788;2023-03-03T14:08:36;9.70;99.90
2002;DHT22;1003;48.002;7.788;2023-03-03T14:11:20;9.70;99.90
2002;DHT22;1003;48.002;7.788;2023-03-03T14:14:01;9.40;99.90
2002;DHT22;1003;48.002;7.788;2023-03-03T14:16:43;9.30;99.90
2002;DHT22;1003;48.002;7.788;2023-03-03T14:19:23;9.40;99.90
2002;DHT22;1003;48.002;7.788;2023-03-03T14:22:05;9.40;99.90
2002;DHT22;1003;48.002;7.788;2023-03-03T14:24:58;9.40;99.90
2002;DHT22;1003;48.002;7.788;2023-03-03T14:27:33;9.30;99.90
2002;DHT22;1003;48.002;7.788;2023-03-03T14:30:26;9.40;99.90
2002;DHT22;1003;48.002;7.788;2023-03-03T14:32:59;9.50;99.90
2002;DHT22;1003;48.002;7.788;2023-03-03T14:35:32;9.40;99.90
2002;DHT22;1003;48.002;7.788;2023-03-03T14:38:01;9.30;99.90
2002;DHT22;1003;48.002;7.788;2023-03-03T14:40:31;9.30;99.90
2002;DHT22;1003;48.002;7.788;2023-03-03T14:43:01;8.90;99.90
2002;DHT22;1003;48.002;7.788;2023-03-03T14:45:34;8.50;99.90
2002;DHT22;1003;48.002;7.788;2023-03-03T14:48:10;8.30;99.90
2002;DHT22;1003;48.002;7.788;2023-03-03T14:50:48;8.60;99.90
2002;DHT22;1003;48.002;7.788;2023-03-03T14:53:29;8.60;99.90
2002;DHT22;1003;48.002;7.788;2023-03-03T14:56:15;8.50;99.90
2002;DHT22;1003;48.002;7.788;2023-03-03T14:58:50;8.40;99.90
2002;DHT22;1003;48.002;7.788;2023-03-03T15:01:29;8.20;99.90
2002;DHT22;1003;48.002;7.788;2023-03-03T15:03:59;8.40;99.90
2002;DHT22;1003;48.002;7.788;2023-03-03T15:06:34;8.40;99.90
2002;DHT22;1003;48.002;7.788;2023-03-03T15:09:27;8.10;99.90
2002;DHT22;1003;48.002;7.788;2023-03-03T15:11:58;8.20;99.90
2002;DHT22;1003;48.002;7.788;2023-03-03T15:14:31;8.30;99.90
2002;DHT22;1003;48.002;7.788;2023-03-03T15:17:20;8.30;99.90
2002;DHT22;1003;48.002;7.788;2023-03-03T15:20:04;8.40;99.90
2002;DHT22;1003;48.002;7.788;2023-03-03T15:22:49;8.30;99.90
2002;DHT22;1003;48.002;7.788;2023-03-03T15:25:26;8.30;99.90
2002;DHT22;1003;48.002;7.788;2023-03-03T15:30:55;8.10;99.90
2002;DHT22;1003;48.002;7.788;2023-03-03T15:33:34;8.10;99.90
2002;DHT22;1003;48.002;7.788;2023-03-03T15:36:15;8.20;99.90
2002;DHT22;1003;48.002;7.788;2023-03-03T15:38:57;8.30;99.90
2002;DHT22;1003;48.002;7.788;2023-03-03T15:41:37;8.40;99.90
2002;DHT22;1003;48.002;7.788;2023-03-03T15:44:16;8.40;99.90
2002;DHT22;1003;48.002;7.788;2023-03-03T15:47:14;8.50;99.90
2002;DHT22;1003;48.002;7.788;2023-03-03T15:53:04;8.30;99.90
2002;DHT22;1003;48.002;7.788;2023-03-03T15:56:04;8.20;99.90
2002;DHT22;1003;48.002;7.788;2023-03-03T15:59:00;8.10;99.90
2002;DHT22;1003;48.002;7.788;2023-03-03T16:01:41;8.10;99.90
2002;DHT22;1003;48.002;7.788;2023-03-03T16:04:20;8.20;99.90
2002;DHT22;1003;48.002;7.788;2023-03-03T16:06:55;8.10;99.90
2002;DHT22;1003;48.002;7.788;2023-03-03T16:09:38;8.10;99.90
2002;DHT22;1003;48.002;7.788;2023-03-03T16:12:25;7.90;99.90
2002;DHT22;1003;48.002;7.788;2023-03-03T16:15:21;8.00;99.90
2002;DHT22;1003;48.002;7.788;2023-03-03T16:18:04;7.80;99.90
2002;DHT22;1003;48.002;7.788;2023-03-03T16:20:45;7.80;99.90
2002;DHT22;1003;48.002;7.788;2023-03-03T16:23:29;7.80;99.90
2002;DHT22;1003;48.002;7.788;2023-03-03T16:26:22;7.70;99.90
2002;DHT22;1003;48.002;7.788;2023-03-03T16:29:15;7.60;99.90
2002;DHT22;1003;48.002;7.788;2023-03-03T16:31:54;7.70;99.90
2002;DHT22;1003;48.002;7.788;2023-03-03T16:34:28;7.80;99.90
2002;DHT22;1003;48.002;7.788;2023-03-03T16:37:06;7.70;99.90
2002;DHT22;1003;48.002;7.788;2023-03-03T16:39:55;7.60;99.90
2002;DHT22;1003;48.002;7.788;2023-03-03T16:42:30;7.50;99.90
2002;DHT22;1003;48.002;7.788;2023-03-03T16:45:05;7.50;99.90
2002;DHT22;1003;48.002;7.788;2023-03-03T16:48:24;7.50;99.90
2002;DHT22;1003;48.002;7.788;2023-03-03T16:51:20;7.40;99.90
2002;DHT22;1003;48.002;7.788;2023-03-03T16:54:04;7.40;99.90
2002;DHT22;1003;48.002;7.788;2023-03-03T16:56:38;7.40;99.90
2002;DHT22;1003;48.002;7.788;2023-03-03T16:59:30;7.30;99.90
2002;DHT22;1003;48.002;7.788;2023-03-03T17:02:23;7.30;99.90
2002;DHT22;1003;48.002;7.788;2023-03-03T17:05:14;7.30;99.90
2002;DHT22;1003;48.002;7.788;2023-03-03T17:07:59;7.20;99.90
2002;DHT22;1003;48.002;7.788;2023-03-03T17:10:41;7.20;99.90
2002;DHT22;1003;48.002;7.788;2023-03-03T17:13:35;7.10;99.90
2002;DHT22;1003;48.002;7.788;2023-03-03T17:16:21;7.10;99.90
2002;DHT22;1003;48.002;7.788;2023-03-03T17:19:08;7.00;99.90
2002;DHT22;1003;48.002;7.788;2023-03-03T17:21:57;7.00;99.90
2002;DHT22;1003;48.002;7.788;2023-03-03T17:24:43;6.90;99.90
2002;DHT22;1003;48.002;7.788;2023-03-03T17:27:24;6.90;99.90
2002;DHT22;1003;48.002;7.788;2023-03-03T17:30:09;6.90;99.90